createdAt,value
2023-02-16T00:01:25.612Z,98650.00
2023-02-16T00:03:55.149Z,98645.34
2023-02-16T00:06:23.813Z,98648.66
2023-02-16T00:08:54.329Z,98643.88
2023-02-16T00:11:45.185Z,98643.13
2023-02-16T00:14:15.749Z,98638.63
2023-02-16T00:16:45.660Z,98643.97
2023-02-16T00:19:23.234Z,98641.31
2023-02-16T00:21:53.762Z,98635.81
2023-02-16T00:24:22.255Z,98641.81
2023-02-16T00:26:51.210Z,98644.38
2023-02-16T00:29:22.702Z,98642.97
2023-02-16T00:31:53.259Z,98648.75
2023-02-16T00:34:30.182Z,98636.03
2023-02-16T00:37:00.143Z,98642.78
2023-02-16T00:39:29.134Z,98633.31
2023-02-16T00:42:00.144Z,98640.41
2023-02-16T00:44:34.203Z,98643.31
2023-02-16T00:47:12.337Z,98646.25
2023-02-16T00:49:40.782Z,98646.22
2023-02-16T00:52:25.831Z,98645.66
2023-02-16T00:54:54.627Z,98646.75
2023-02-16T00:57:23.052Z,98648.94
2023-02-16T01:00:00.167Z,98632.16
2023-02-16T01:02:30.338Z,98641.81
2023-02-16T01:04:58.816Z,98646.94
2023-02-16T01:07:44.092Z,98637.31
2023-02-16T01:10:30.408Z,98645.88
2023-02-16T01:12:58.237Z,98650.31
2023-02-16T01:15:27.640Z,98634.41
2023-02-16T01:17:57.820Z,98628.28
2023-02-16T01:20:27.020Z,98627.69
2023-02-16T01:22:55.254Z,98636.28
2023-02-16T01:25:23.750Z,98629.16
2023-02-16T01:27:51.934Z,98640.41
2023-02-16T01:30:21.552Z,98625.06
2023-02-16T01:32:52.313Z,98622.16
2023-02-16T01:35:22.872Z,98619.47
2023-02-16T01:37:51.395Z,98611.69
2023-02-16T01:40:28.446Z,98615.84
2023-02-16T01:43:03.221Z,98623.16
2023-02-16T01:45:35.992Z,98618.88
2023-02-16T01:48:05.699Z,98606.56
2023-02-16T01:50:45.371Z,98615.38
2023-02-16T01:53:20.763Z,98610.28
2023-02-16T01:55:55.137Z,98606.22
2023-02-16T01:58:34.881Z,98609.22
2023-02-16T02:01:39.143Z,98614.66
2023-02-16T02:04:51.818Z,98599.75
2023-02-16T02:07:29.177Z,98592.22
2023-02-16T02:10:02.482Z,98592.69
2023-02-16T02:12:39.272Z,98584.22
2023-02-16T02:15:09.283Z,98577.00
2023-02-16T02:17:37.389Z,98583.81
2023-02-16T02:20:13.171Z,98598.19
2023-02-16T02:23:28.570Z,98579.81
2023-02-16T02:26:45.099Z,98573.84
2023-02-16T02:29:34.826Z,98570.94
2023-02-16T02:32:12.896Z,98577.41
2023-02-16T02:34:55.798Z,98576.78
2023-02-16T02:37:36.642Z,98576.91
2023-02-16T02:40:12.316Z,98565.72
2023-02-16T02:42:46.321Z,98571.94
2023-02-16T02:45:19.852Z,98570.94
2023-02-16T02:47:49.744Z,98519.03
2023-02-16T02:50:35.614Z,98582.19
2023-02-16T02:53:07.007Z,98574.44
2023-02-16T02:55:58.395Z,98574.06
2023-02-16T02:58:46.367Z,98571.94
2023-02-16T03:01:19.493Z,98571.38
2023-02-16T03:03:51.814Z,98569.28
2023-02-16T03:06:25.276Z,98564.38
2023-02-16T03:09:01.665Z,98552.31
2023-02-16T03:11:48.568Z,98563.44
2023-02-16T03:14:19.985Z,98557.03
2023-02-16T03:17:06.324Z,98525.66
2023-02-16T03:19:52.135Z,98560.00
2023-02-16T03:22:38.273Z,98545.47
2023-02-16T03:25:24.718Z,98549.75
2023-02-16T03:28:10.376Z,98556.72
2023-02-16T03:30:38.982Z,98559.59
2023-02-16T03:33:08.576Z,98557.53
2023-02-16T03:35:38.132Z,98566.13
2023-02-16T03:38:06.925Z,98555.28
2023-02-16T03:40:36.620Z,98559.00
2023-02-16T03:43:07.808Z,98561.63
2023-02-16T03:45:40.871Z,98567.00
2023-02-16T03:48:11.786Z,98545.91
2023-02-16T03:50:39.959Z,98549.75
2023-02-16T03:53:07.951Z,98549.47
2023-02-16T03:55:38.072Z,98550.69
2023-02-16T03:58:06.652Z,98541.59
2023-02-16T04:00:35.706Z,98553.84
2023-02-16T04:03:04.748Z,98554.66
2023-02-16T04:05:34.842Z,98540.88
2023-02-16T04:08:02.718Z,98546.44
2023-02-16T04:10:31.189Z,98543.38
2023-02-16T04:12:58.149Z,98562.19
2023-02-16T04:15:27.696Z,98560.13
2023-02-16T04:17:56.786Z,98567.53
2023-02-16T04:20:27.793Z,98561.78
2023-02-16T04:22:58.352Z,98563.34
2023-02-16T04:25:26.386Z,98563.13
2023-02-16T04:27:54.963Z,98526.25
2023-02-16T04:30:25.860Z,98571.06
2023-02-16T04:32:53.906Z,98577.03
2023-02-16T04:35:22.466Z,98573.13
2023-02-16T04:37:51.079Z,98566.34
2023-02-16T04:40:20.786Z,98562.69
2023-02-16T04:42:49.157Z,98585.00
2023-02-16T04:45:17.926Z,98580.69
2023-02-16T04:47:46.006Z,98575.59
2023-02-16T04:50:15.080Z,98576.34
2023-02-16T04:52:44.429Z,98579.47
2023-02-16T04:55:12.548Z,98573.88
2023-02-16T04:57:42.521Z,98577.19
2023-02-16T05:00:13.463Z,98580.03
2023-02-16T05:02:41.527Z,98578.66
2023-02-16T05:05:09.894Z,98579.44
2023-02-16T05:07:38.899Z,98581.47
2023-02-16T05:10:07.897Z,98584.72
2023-02-16T05:12:53.883Z,98580.22
2023-02-16T05:15:23.388Z,98584.63
2023-02-16T05:17:51.544Z,98589.53
2023-02-16T05:20:20.419Z,98576.88
2023-02-16T05:22:48.712Z,98580.34
2023-02-16T05:25:17.850Z,98586.00
2023-02-16T05:27:46.459Z,98578.44
2023-02-16T05:30:15.853Z,98590.25
2023-02-16T05:32:45.398Z,98584.91
2023-02-16T05:35:13.966Z,98588.00
2023-02-16T05:37:42.840Z,98587.81
2023-02-16T05:40:13.250Z,98585.84
2023-02-16T05:42:42.826Z,98584.25
2023-02-16T05:45:11.511Z,98582.88
2023-02-16T05:47:40.125Z,98578.59
2023-02-16T05:50:11.229Z,98575.34
2023-02-16T05:52:40.019Z,98579.19
2023-02-16T05:55:08.282Z,98583.25
2023-02-16T05:57:37.224Z,98588.50
2023-02-16T06:00:06.755Z,98580.81
2023-02-16T06:02:35.072Z,98582.16
2023-02-16T06:05:04.049Z,98594.63
2023-02-16T06:07:33.457Z,98587.03
2023-02-16T06:10:02.566Z,98589.75
2023-02-16T06:12:32.672Z,98607.53
2023-02-16T06:15:00.978Z,98601.59
2023-02-16T06:17:29.658Z,98600.75
2023-02-16T06:19:58.544Z,98602.81
2023-02-16T06:22:26.965Z,98595.81
2023-02-16T06:24:57.186Z,98585.63
2023-02-16T06:27:26.231Z,98613.59
2023-02-16T06:29:54.631Z,98603.41
2023-02-16T06:32:23.505Z,98615.28
2023-02-16T06:34:52.702Z,98611.00
2023-02-16T06:37:22.507Z,98615.44
2023-02-16T06:39:51.708Z,98600.38
2023-02-16T06:42:22.225Z,98592.38
2023-02-16T06:44:50.505Z,98598.94
2023-02-16T06:47:19.396Z,98592.63
2023-02-16T06:49:48.420Z,98600.19
2023-02-16T06:52:16.907Z,98599.53
2023-02-16T06:54:45.890Z,98611.97
2023-02-16T06:57:14.643Z,98615.59
2023-02-16T06:59:44.564Z,98628.22
2023-02-16T07:02:13.570Z,98620.28
2023-02-16T07:04:42.255Z,98607.56
2023-02-16T07:07:12.258Z,98599.06
2023-02-16T07:09:41.075Z,98595.75
2023-02-16T07:12:10.211Z,98618.03
2023-02-16T07:14:39.594Z,98592.81
2023-02-16T07:17:09.795Z,98614.94
2023-02-16T07:19:38.149Z,98602.53
2023-02-16T07:22:06.750Z,98615.78
2023-02-16T07:24:35.973Z,98607.00
2023-02-16T07:27:05.446Z,98606.78
2023-02-16T07:29:33.749Z,98604.91
2023-02-16T07:32:03.212Z,98603.19
2023-02-16T07:34:33.250Z,98598.47
2023-02-16T07:37:01.545Z,98597.59
2023-02-16T07:39:31.538Z,98592.69
2023-02-16T07:42:00.008Z,98579.78
2023-02-16T07:44:28.375Z,98585.72
2023-02-16T07:46:57.145Z,98583.78
2023-02-16T07:49:26.046Z,98589.69
2023-02-16T07:51:55.616Z,98592.41
2023-02-16T07:54:24.425Z,98602.19
2023-02-16T07:56:53.526Z,98598.53
2023-02-16T07:59:21.945Z,98596.94
2023-02-16T08:01:54.443Z,98613.38
2023-02-16T08:04:22.798Z,98614.56
2023-02-16T08:06:51.515Z,98608.31
2023-02-16T08:09:21.707Z,98594.13
2023-02-16T08:11:50.093Z,98596.16
2023-02-16T08:14:18.985Z,98600.41
2023-02-16T08:16:50.328Z,98620.06
2023-02-16T08:19:20.150Z,98610.41
2023-02-16T08:21:50.013Z,98606.72
2023-02-16T08:24:22.144Z,98610.16
2023-02-16T08:26:51.613Z,98617.66
2023-02-16T08:29:20.841Z,98608.81
2023-02-16T08:31:50.771Z,98611.91
2023-02-16T08:34:22.172Z,98619.59
2023-02-16T08:36:56.890Z,98611.19
2023-02-16T08:39:30.158Z,98628.81
2023-02-16T08:41:59.608Z,98629.31
2023-02-16T08:44:29.842Z,98630.59
2023-02-16T08:47:01.624Z,98625.59
2023-02-16T08:49:30.677Z,98631.22
2023-02-16T08:52:01.733Z,98643.50
2023-02-16T08:54:34.173Z,98630.66
2023-02-16T08:57:04.119Z,98634.59
2023-02-16T08:59:32.881Z,98642.31
2023-02-16T09:02:02.024Z,98640.69
2023-02-16T09:04:30.601Z,98638.69
2023-02-16T09:06:59.705Z,98645.69
2023-02-16T09:09:29.188Z,98645.56
2023-02-16T09:11:58.880Z,98650.19
2023-02-16T09:14:28.126Z,98665.75
2023-02-16T09:16:56.965Z,98661.28
2023-02-16T09:19:25.806Z,98668.25
2023-02-16T09:21:56.792Z,98664.13
2023-02-16T09:24:25.913Z,98665.22
2023-02-16T09:26:54.051Z,98661.03
2023-02-16T09:29:23.828Z,98653.13
2023-02-16T09:31:53.058Z,98669.41
2023-02-16T09:34:23.978Z,98665.50
2023-02-16T09:36:53.773Z,98658.97
2023-02-16T09:39:22.213Z,98675.63
2023-02-16T09:42:04.486Z,98661.44
2023-02-16T09:44:43.548Z,98665.28
2023-02-16T09:47:22.307Z,98662.25
2023-02-16T09:49:51.488Z,98660.81
2023-02-16T09:52:27.024Z,98657.91
2023-02-16T09:54:59.640Z,98644.56
2023-02-16T09:57:48.507Z,98646.22
2023-02-16T10:00:32.146Z,98654.00
2023-02-16T10:03:15.049Z,98649.53
2023-02-16T10:05:49.658Z,98642.72
2023-02-16T10:08:28.235Z,98643.72
2023-02-16T10:11:05.219Z,98638.03
2023-02-16T10:13:42.134Z,98642.03
2023-02-16T10:16:18.559Z,98635.47
2023-02-16T10:18:52.535Z,98635.13
2023-02-16T10:21:27.038Z,98631.13
2023-02-16T10:24:00.438Z,98636.72
2023-02-16T10:26:33.887Z,98635.94
2023-02-16T10:29:08.374Z,98643.16
2023-02-16T10:31:43.754Z,98646.41
2023-02-16T10:34:23.294Z,98638.88
2023-02-16T10:37:13.243Z,98625.00
2023-02-16T10:39:48.214Z,98627.75
2023-02-16T10:42:23.937Z,98630.44
2023-02-16T10:45:00.134Z,98631.13
2023-02-16T10:47:42.378Z,98624.91
2023-02-16T10:50:23.646Z,98628.97
2023-02-16T10:52:54.214Z,98633.28
2023-02-16T10:55:22.570Z,98620.75
2023-02-16T10:57:56.591Z,98628.44
2023-02-16T11:00:35.213Z,98620.94
2023-02-16T11:03:07.306Z,98607.81
2023-02-16T11:05:38.393Z,98602.59
2023-02-16T11:08:08.791Z,98611.81
2023-02-16T11:10:40.702Z,98604.16
2023-02-16T11:13:19.858Z,98598.81
2023-02-16T11:15:54.978Z,98596.56
2023-02-16T11:18:37.274Z,98596.28
2023-02-16T11:21:07.665Z,98584.81
2023-02-16T11:23:38.141Z,98595.72
2023-02-16T11:26:09.333Z,98592.88
2023-02-16T11:28:39.823Z,98583.91
2023-02-16T11:31:19.936Z,98578.97
2023-02-16T11:34:02.311Z,98585.06
2023-02-16T11:36:34.835Z,98565.09
2023-02-16T11:39:08.058Z,98574.91
2023-02-16T11:41:37.625Z,98578.06
2023-02-16T11:44:07.748Z,98581.66
2023-02-16T11:46:42.634Z,98573.53
2023-02-16T11:49:35.306Z,98575.44
2023-02-16T11:52:21.325Z,98566.69
2023-02-16T11:54:51.674Z,98575.56
2023-02-16T11:57:27.166Z,98560.00
2023-02-16T11:59:57.722Z,98569.50
2023-02-16T12:02:52.043Z,98556.22
2023-02-16T12:05:29.086Z,98558.09
2023-02-16T12:08:19.172Z,98555.69
2023-02-16T12:11:03.591Z,98548.88
2023-02-16T12:13:43.841Z,98543.25
2023-02-16T12:16:26.470Z,98549.38
2023-02-16T12:19:09.164Z,98532.78
2023-02-16T12:21:47.112Z,98535.81
2023-02-16T12:24:29.720Z,98530.13
2023-02-16T12:27:02.094Z,98526.94
2023-02-16T12:29:47.886Z,98528.53
2023-02-16T12:32:32.422Z,98521.63
2023-02-16T12:35:28.915Z,98522.63
2023-02-16T12:38:05.771Z,98522.53
2023-02-16T12:40:46.224Z,98519.19
2023-02-16T12:43:33.077Z,98519.88
2023-02-16T12:46:08.901Z,98496.41
2023-02-16T12:48:44.174Z,98508.69
2023-02-16T12:51:19.403Z,98514.03
2023-02-16T12:53:59.922Z,98502.00
2023-02-16T12:56:33.192Z,98505.84
2023-02-16T12:59:19.166Z,98497.31
2023-02-16T13:01:49.798Z,98494.59
2023-02-16T13:04:24.320Z,98491.41
2023-02-16T13:06:59.421Z,98480.91
2023-02-16T13:09:39.321Z,98480.59
2023-02-16T13:12:17.318Z,98484.44
2023-02-16T13:14:54.033Z,98489.69
2023-02-16T13:17:32.148Z,98486.38
2023-02-16T13:20:03.283Z,98476.50
2023-02-16T13:23:13.309Z,98476.47
2023-02-16T13:26:01.650Z,98476.16
2023-02-16T13:28:52.723Z,98474.31
2023-02-16T13:31:34.529Z,98473.44
2023-02-16T13:34:22.489Z,98476.56
2023-02-16T13:37:06.042Z,98464.31
2023-02-16T13:39:58.972Z,98472.66
2023-02-16T13:43:01.387Z,98473.66
2023-02-16T13:45:32.816Z,98461.66
2023-02-16T13:48:02.544Z,98462.63
2023-02-16T13:50:34.400Z,98452.25
2023-02-16T13:53:14.796Z,98471.81
2023-02-16T13:55:43.688Z,98462.56
2023-02-16T13:58:33.000Z,98479.38
2023-02-16T14:01:42.101Z,98470.19
2023-02-16T14:04:36.124Z,98465.59
2023-02-16T14:07:33.583Z,98457.94
2023-02-16T14:10:02.320Z,98468.13
2023-02-16T14:12:36.350Z,98460.19
2023-02-16T14:15:09.178Z,98462.09
2023-02-16T14:17:37.948Z,98474.69
2023-02-16T14:20:27.060Z,98469.50
2023-02-16T14:23:00.139Z,98476.69
2023-02-16T14:25:46.828Z,98482.78
2023-02-16T14:29:00.416Z,98470.38
2023-02-16T14:31:34.157Z,98472.00
2023-02-16T14:34:10.352Z,98453.06
2023-02-16T14:37:28.258Z,98465.81
2023-02-16T14:40:08.204Z,98470.97
2023-02-16T14:42:38.739Z,98468.94
2023-02-16T14:45:27.428Z,98466.75
2023-02-16T14:48:12.746Z,98471.47
2023-02-16T14:50:56.896Z,98473.03
2023-02-16T14:54:05.045Z,98467.84
2023-02-16T14:56:42.348Z,98456.66
2023-02-16T14:59:22.694Z,98461.19
2023-02-16T15:01:51.916Z,98453.13
2023-02-16T15:04:31.108Z,98461.13
2023-02-16T15:07:02.926Z,98459.97
2023-02-16T15:09:35.373Z,98460.72
2023-02-16T15:12:24.193Z,98461.91
2023-02-16T15:14:56.348Z,98457.25
2023-02-16T15:17:35.072Z,98454.47
2023-02-16T15:20:13.097Z,98445.22
2023-02-16T15:22:50.187Z,98449.78
2023-02-16T15:25:25.243Z,98458.69
2023-02-16T15:28:01.387Z,98450.09
2023-02-16T15:30:31.945Z,98454.94
2023-02-16T15:33:02.890Z,98436.81
2023-02-16T15:35:37.728Z,98432.13
2023-02-16T15:38:09.918Z,98435.06
2023-02-16T15:40:40.041Z,98432.88
2023-02-16T15:43:20.744Z,98424.53
2023-02-16T15:45:53.274Z,98427.38
2023-02-16T15:48:31.523Z,98429.03
2023-02-16T15:51:11.804Z,98431.69
2023-02-16T15:53:52.289Z,98423.44
2023-02-16T15:56:39.669Z,98421.97
2023-02-16T15:59:24.084Z,98398.59
2023-02-16T16:02:00.246Z,98425.41
2023-02-16T16:04:30.426Z,98418.28
2023-02-16T16:07:02.371Z,98414.25
2023-02-16T16:09:34.062Z,98412.06
2023-02-16T16:12:05.887Z,98409.81
2023-02-16T16:14:37.403Z,98410.53
2023-02-16T16:17:09.617Z,98410.03
2023-02-16T16:19:40.112Z,98411.38
2023-02-16T16:22:30.945Z,98401.53
2023-02-16T16:24:59.665Z,98400.38
2023-02-16T16:27:33.797Z,98398.44
2023-02-16T16:30:15.626Z,98396.00
2023-02-16T16:32:45.123Z,98375.34
2023-02-16T16:35:21.690Z,98390.72
2023-02-16T16:37:54.416Z,98391.56
2023-02-16T16:40:26.068Z,98393.16
2023-02-16T16:43:18.302Z,98388.19
2023-02-16T16:45:48.481Z,98392.22
2023-02-16T16:48:21.358Z,98389.28
2023-02-16T16:50:50.937Z,98400.81
2023-02-16T16:53:53.656Z,98406.50
2023-02-16T16:56:23.223Z,98383.09
2023-02-16T16:58:53.591Z,98401.03
2023-02-16T17:01:22.575Z,98391.72
2023-02-16T17:03:53.606Z,98390.63
2023-02-16T17:06:22.930Z,98392.47
2023-02-16T17:08:55.219Z,98390.63
2023-02-16T17:11:27.533Z,98407.19
2023-02-16T17:13:58.581Z,98402.03
2023-02-16T17:16:30.805Z,98400.94
2023-02-16T17:18:59.412Z,98396.31
2023-02-16T17:21:27.841Z,98391.44
2023-02-16T17:23:57.709Z,98391.94
2023-02-16T17:26:26.624Z,98388.13
2023-02-16T17:28:54.806Z,98388.25
2023-02-16T17:31:23.460Z,98387.25
2023-02-16T17:33:52.987Z,98387.44
2023-02-16T17:36:23.973Z,98384.81
2023-02-16T17:38:52.907Z,98386.25
2023-02-16T17:41:25.300Z,98391.31
2023-02-16T17:43:56.458Z,98390.69
2023-02-16T17:46:27.007Z,98382.47
2023-02-16T17:48:56.682Z,98387.06
2023-02-16T17:51:27.115Z,98382.59
2023-02-16T17:53:55.789Z,98389.06
2023-02-16T17:56:26.813Z,98392.88
2023-02-16T17:58:55.898Z,98391.31
2023-02-16T18:01:24.131Z,98381.50
2023-02-16T18:03:53.597Z,98397.03
2023-02-16T18:06:25.921Z,98400.97
2023-02-16T18:08:55.880Z,98395.88
2023-02-16T18:11:25.501Z,98399.59
2023-02-16T18:13:53.990Z,98402.22
2023-02-16T18:16:28.327Z,98396.84
2023-02-16T18:18:58.294Z,98395.09
2023-02-16T18:21:27.062Z,98397.28
2023-02-16T18:23:55.694Z,98390.13
2023-02-16T18:26:25.494Z,98392.06
2023-02-16T18:28:53.573Z,98389.47
2023-02-16T18:31:23.019Z,98394.28
2023-02-16T18:33:51.967Z,98386.00
2023-02-16T18:36:20.660Z,98388.91
2023-02-16T18:38:49.863Z,98390.66
2023-02-16T18:41:18.427Z,98392.53
2023-02-16T18:43:48.138Z,98399.63
2023-02-16T18:46:16.948Z,98394.25
2023-02-16T18:48:45.429Z,98395.56
2023-02-16T18:51:14.720Z,98402.69
2023-02-16T18:53:43.990Z,98410.75
2023-02-16T18:56:13.690Z,98416.38
2023-02-16T18:58:42.016Z,98410.88
2023-02-16T19:01:16.737Z,98418.81
2023-02-16T19:03:45.356Z,98413.97
2023-02-16T19:06:13.905Z,98403.69
2023-02-16T19:08:42.555Z,98413.97
2023-02-16T19:11:10.783Z,98418.75
2023-02-16T19:13:39.055Z,98415.00
2023-02-16T19:16:08.506Z,98411.25
2023-02-16T19:18:38.780Z,98415.72
2023-02-16T19:21:08.756Z,98423.31
2023-02-16T19:23:37.978Z,98414.44
2023-02-16T19:26:07.588Z,98420.25
2023-02-16T19:28:36.413Z,98404.88
2023-02-16T19:31:06.896Z,98402.88
2023-02-16T19:33:35.501Z,98395.84
2023-02-16T19:36:09.680Z,98393.38
2023-02-16T19:38:38.530Z,98406.09
2023-02-16T19:41:11.832Z,98403.84
2023-02-16T19:43:40.809Z,98415.53
2023-02-16T19:46:10.365Z,98421.78
2023-02-16T19:48:39.322Z,98403.41
2023-02-16T19:51:10.623Z,98408.81
2023-02-16T19:53:40.688Z,98416.47
2023-02-16T19:56:11.135Z,98413.88
2023-02-16T19:58:39.705Z,98410.50
2023-02-16T20:01:10.031Z,98415.03
2023-02-16T20:03:38.848Z,98403.16
2023-02-16T20:06:17.643Z,98387.47
2023-02-16T20:08:46.868Z,98395.50
2023-02-16T20:11:16.695Z,98382.97
2023-02-16T20:13:46.040Z,98389.00
2023-02-16T20:16:15.595Z,98392.16
2023-02-16T20:18:44.406Z,98388.84
2023-02-16T20:21:17.892Z,98396.53
2023-02-16T20:23:47.245Z,98387.25
2023-02-16T20:26:19.699Z,98387.72
2023-02-16T20:28:49.524Z,98385.69
2023-02-16T20:31:20.153Z,98387.63
2023-02-16T20:33:52.091Z,98381.47
2023-02-16T20:36:22.683Z,98380.00
2023-02-16T20:38:51.393Z,98388.47
2023-02-16T20:41:21.160Z,98383.28
2023-02-16T20:43:50.208Z,98383.81
2023-02-16T20:46:19.487Z,98393.88
2023-02-16T20:48:50.606Z,98393.09
2023-02-16T20:51:19.384Z,98396.06
2023-02-16T20:53:49.127Z,98386.41
2023-02-16T20:56:21.574Z,98383.06
2023-02-16T20:58:51.202Z,98372.69
2023-02-16T21:01:23.750Z,98380.66
2023-02-16T21:03:53.640Z,98374.50
2023-02-16T21:06:22.396Z,98369.66
2023-02-16T21:08:52.787Z,98368.22
2023-02-16T21:11:21.090Z,98360.72
2023-02-16T21:13:49.431Z,98363.00
2023-02-16T21:16:18.508Z,98368.97
2023-02-16T21:18:46.742Z,98356.66
2023-02-16T21:21:16.729Z,98359.28
2023-02-16T21:23:47.240Z,98350.16
2023-02-16T21:26:17.758Z,98364.78
2023-02-16T21:28:48.010Z,98355.06
2023-02-16T21:31:18.648Z,98344.50
2023-02-16T21:33:47.642Z,98342.72
2023-02-16T21:36:17.920Z,98346.13
2023-02-16T21:38:46.623Z,98337.34
2023-02-16T21:41:26.456Z,98330.41
2023-02-16T21:43:58.704Z,98342.97
2023-02-16T21:46:27.569Z,98338.59
2023-02-16T21:48:55.292Z,98328.16
2023-02-16T21:51:31.736Z,98337.84
2023-02-16T21:54:00.344Z,98335.84
2023-02-16T21:56:34.364Z,98335.09
2023-02-16T21:59:03.717Z,98342.69
2023-02-16T22:01:35.212Z,98340.16
2023-02-16T22:04:03.796Z,98336.50
2023-02-16T22:06:35.379Z,98344.66
2023-02-16T22:09:07.400Z,98335.63
2023-02-16T22:11:38.338Z,98332.63
2023-02-16T22:14:06.932Z,98330.84
2023-02-16T22:16:38.326Z,98324.97
2023-02-16T22:19:09.498Z,98329.13
2023-02-16T22:21:39.276Z,98328.41
2023-02-16T22:24:08.840Z,98334.19
2023-02-16T22:26:39.216Z,98317.03
2023-02-16T22:29:09.240Z,98310.59
2023-02-16T22:31:38.500Z,98323.78
2023-02-16T22:34:10.462Z,98322.16
2023-02-16T22:36:39.002Z,98318.41
2023-02-16T22:39:08.103Z,98309.38
2023-02-16T22:41:37.120Z,98317.25
2023-02-16T22:44:07.618Z,98313.47
2023-02-16T22:46:36.114Z,98318.81
2023-02-16T22:49:05.130Z,98311.28
2023-02-16T22:51:33.402Z,98306.78
2023-02-16T22:54:02.882Z,98306.47
2023-02-16T22:56:32.479Z,98300.59
2023-02-16T22:59:01.405Z,98307.47
2023-02-16T23:01:32.853Z,98288.91
2023-02-16T23:04:02.346Z,98300.66
2023-02-16T23:06:33.419Z,98299.38
2023-02-16T23:09:04.253Z,98311.69
2023-02-16T23:11:35.496Z,98295.22
2023-02-16T23:14:03.892Z,98295.69
2023-02-16T23:16:34.168Z,98294.44
2023-02-16T23:19:03.150Z,98291.06
2023-02-16T23:21:33.657Z,98292.88
2023-02-16T23:24:05.439Z,98278.63
2023-02-16T23:26:33.784Z,98290.72
2023-02-16T23:29:03.795Z,98287.97
2023-02-16T23:31:38.825Z,98289.19
2023-02-16T23:34:09.507Z,98287.00
2023-02-16T23:36:40.124Z,98286.44
2023-02-16T23:39:11.545Z,98294.34
2023-02-16T23:41:41.145Z,98292.91
2023-02-16T23:44:11.469Z,98274.94
2023-02-16T23:46:41.892Z,98280.44
2023-02-16T23:49:09.984Z,98275.06
2023-02-16T23:51:38.239Z,98275.84
2023-02-16T23:54:09.677Z,98272.09
2023-02-16T23:56:37.957Z,98271.13
2023-02-16T23:59:06.335Z,98269.97
